createdAt,value
2019-04-27T00:00:47.060Z,14.73
2019-04-27T00:03:41.142Z,17.13
2019-04-27T00:06:08.683Z,12.73
2019-04-27T00:08:43.117Z,12.57
2019-04-27T00:11:13.782Z,14.10
2019-04-27T00:13:43.994Z,15.07
2019-04-27T00:16:29.827Z,12.50
2019-04-27T00:19:06.489Z,13.47
2019-04-27T00:21:55.137Z,14.50
2019-04-27T00:24:24.094Z,17.27
2019-04-27T00:26:54.044Z,13.03
2019-04-27T00:29:23.628Z,17.37
2019-04-27T00:31:55.677Z,12.37
2019-04-27T00:34:24.168Z,16.80
2019-04-27T00:36:54.676Z,16.53
2019-04-27T00:39:25.067Z,10.03
2019-04-27T00:41:53.918Z,15.20
2019-04-27T00:44:23.685Z,12.43
2019-04-27T00:46:53.406Z,10.83
2019-04-27T00:49:23.790Z,13.00
2019-04-27T00:51:53.584Z,15.00
2019-04-27T00:54:23.766Z,19.60
2019-04-27T00:56:54.360Z,32.23
2019-04-27T00:59:43.039Z,34.33
2019-04-27T01:02:19.677Z,26.00
2019-04-27T01:04:48.911Z,36.00
2019-04-27T01:07:17.871Z,43.40
2019-04-27T01:09:46.823Z,44.60
2019-04-27T01:12:15.822Z,31.50
2019-04-27T01:14:45.154Z,15.03
2019-04-27T01:17:14.136Z,21.57
2019-04-27T01:19:43.068Z,17.27
2019-04-27T01:22:11.939Z,37.00
2019-04-27T01:24:40.781Z,46.03
2019-04-27T01:27:20.476Z,20.30
2019-04-27T01:29:50.228Z,15.87
2019-04-27T01:32:20.721Z,13.50
2019-04-27T01:34:49.669Z,11.37
2019-04-27T01:37:19.712Z,12.87
2019-04-27T01:39:50.379Z,10.43
2019-04-27T01:42:19.625Z,16.30
2019-04-27T01:44:49.596Z,12.50
2019-04-27T01:47:18.990Z,11.23
2019-04-27T01:49:49.425Z,16.03
2019-04-27T01:52:19.438Z,28.93
2019-04-27T01:54:49.573Z,9.33
2019-04-27T01:57:19.402Z,12.80
2019-04-27T01:59:48.898Z,14.77
2019-04-27T02:02:32.622Z,19.73
2019-04-27T02:05:03.040Z,15.40
2019-04-27T02:07:32.075Z,12.07
2019-04-27T02:10:00.967Z,18.13
2019-04-27T02:12:31.471Z,27.13
2019-04-27T02:15:00.487Z,22.13
2019-04-27T02:17:29.415Z,19.70
2019-04-27T02:19:59.530Z,17.63
2019-04-27T02:22:29.738Z,11.30
2019-04-27T02:24:59.179Z,12.70
2019-04-27T02:27:29.730Z,13.67
2019-04-27T02:30:03.083Z,12.43
2019-04-27T02:32:33.462Z,9.97
2019-04-27T02:35:03.901Z,14.57
2019-04-27T02:37:32.842Z,13.37
2019-04-27T02:40:01.708Z,8.37
2019-04-27T02:42:32.147Z,11.60
2019-04-27T02:45:01.064Z,18.23
2019-04-27T02:47:29.896Z,13.40
2019-04-27T02:50:00.658Z,13.53
2019-04-27T02:52:30.863Z,11.47
2019-04-27T02:54:59.737Z,18.00
2019-04-27T02:57:30.113Z,16.00
2019-04-27T03:00:00.017Z,15.53
2019-04-27T03:02:33.453Z,16.13
2019-04-27T03:05:02.358Z,13.43
2019-04-27T03:07:31.308Z,12.83
2019-04-27T03:10:02.274Z,14.40
2019-04-27T03:12:32.263Z,9.37
2019-04-27T03:15:02.785Z,10.07
2019-04-27T03:17:49.455Z,12.60
2019-04-27T03:20:22.510Z,15.97
2019-04-27T03:22:52.965Z,12.13
2019-04-27T03:25:23.349Z,12.67
2019-04-27T03:28:00.085Z,12.67
2019-04-27T03:30:31.792Z,12.13
2019-04-27T03:33:03.172Z,13.50
2019-04-27T03:35:35.270Z,13.77
2019-04-27T03:38:00.515Z,11.37
2019-04-27T03:40:30.775Z,10.50
2019-04-27T03:43:01.456Z,14.90
2019-04-27T03:45:30.390Z,14.67
2019-04-27T03:48:00.534Z,11.77
2019-04-27T03:50:31.132Z,14.80
2019-04-27T03:53:10.482Z,10.67
2019-04-27T03:55:42.729Z,16.60
2019-04-27T03:58:31.336Z,18.50
2019-04-27T04:01:00.251Z,11.27
2019-04-27T04:03:29.793Z,14.17
2019-04-27T04:06:00.290Z,13.73
2019-04-27T04:08:30.756Z,14.43
2019-04-27T04:11:10.421Z,22.73
2019-04-27T04:13:43.641Z,13.03
2019-04-27T04:16:14.113Z,12.23
2019-04-27T04:18:56.214Z,10.57
2019-04-27T04:21:25.184Z,13.97
2019-04-27T04:23:54.047Z,15.37
2019-04-27T04:26:22.960Z,19.70
2019-04-27T04:28:51.822Z,15.27
2019-04-27T04:31:21.111Z,13.77
2019-04-27T04:33:50.102Z,18.00
2019-04-27T04:36:20.106Z,25.60
2019-04-27T04:38:50.451Z,12.90
2019-04-27T04:41:32.837Z,20.17
2019-04-27T04:44:20.370Z,16.93
2019-04-27T04:47:00.311Z,16.53
2019-04-27T04:49:29.798Z,16.83
2019-04-27T04:51:59.467Z,13.47
2019-04-27T04:54:30.037Z,14.53
2019-04-27T04:56:59.548Z,15.87
2019-04-27T04:59:29.197Z,18.63
2019-04-27T05:02:01.854Z,23.77
2019-04-27T05:04:29.247Z,13.40
2019-04-27T05:06:59.183Z,21.17
2019-04-27T05:09:29.546Z,16.23
2019-04-27T05:11:58.755Z,19.83
2019-04-27T05:14:28.851Z,17.10
2019-04-27T05:16:59.243Z,23.13
2019-04-27T05:19:28.881Z,17.80
2019-04-27T05:21:59.286Z,20.70
2019-04-27T05:24:30.067Z,17.50
2019-04-27T05:26:59.172Z,16.03
2019-04-27T05:29:29.317Z,18.20
2019-04-27T05:31:59.242Z,17.50
2019-04-27T05:34:29.387Z,16.73
2019-04-27T05:36:59.341Z,16.37
2019-04-27T05:39:29.924Z,17.93
2019-04-27T05:41:59.779Z,12.60
2019-04-27T05:44:52.402Z,17.07
2019-04-27T05:47:22.843Z,14.30
2019-04-27T05:49:53.480Z,22.03
2019-04-27T05:52:29.502Z,13.43
2019-04-27T05:54:59.272Z,13.20
2019-04-27T05:57:30.998Z,13.90
2019-04-27T06:00:02.014Z,13.70
2019-04-27T06:02:30.561Z,35.00
2019-04-27T06:05:00.143Z,42.97
2019-04-27T06:07:29.581Z,24.93
2019-04-27T06:09:59.885Z,21.23
2019-04-27T06:12:29.803Z,22.53
2019-04-27T06:14:59.846Z,16.83
2019-04-27T06:17:30.024Z,16.13
2019-04-27T06:19:59.700Z,15.33
2019-04-27T06:22:29.366Z,12.97
2019-04-27T06:25:00.029Z,12.83
2019-04-27T06:27:30.731Z,11.30
2019-04-27T06:29:59.590Z,11.47
2019-04-27T06:32:29.522Z,11.57
2019-04-27T06:34:59.098Z,12.40
2019-04-27T06:37:29.403Z,10.27
2019-04-27T06:39:59.711Z,12.90
2019-04-27T06:42:29.633Z,10.80
2019-04-27T06:44:59.977Z,11.80
2019-04-27T06:47:29.512Z,11.77
2019-04-27T06:49:58.813Z,13.87
2019-04-27T06:52:29.144Z,14.60
2019-04-27T06:54:58.357Z,12.37
2019-04-27T06:57:29.133Z,14.60
2019-04-27T06:59:59.166Z,13.97
2019-04-27T07:02:29.088Z,16.00
2019-04-27T07:04:59.207Z,11.60
2019-04-27T07:07:29.438Z,11.97
2019-04-27T07:09:59.159Z,12.73
2019-04-27T07:12:28.753Z,10.37
2019-04-27T07:14:59.228Z,11.23
2019-04-27T07:17:28.959Z,13.10
2019-04-27T07:19:59.441Z,15.20
2019-04-27T07:22:29.824Z,14.17
2019-04-27T07:24:59.116Z,17.17
2019-04-27T07:27:29.127Z,12.70
2019-04-27T07:29:59.595Z,10.53
2019-04-27T07:32:29.229Z,11.60
2019-04-27T07:34:58.672Z,9.03
2019-04-27T07:37:29.280Z,6.83
2019-04-27T07:39:59.154Z,9.27
2019-04-27T07:42:32.193Z,16.70
2019-04-27T07:45:01.976Z,21.23
2019-04-27T07:47:31.785Z,25.50
2019-04-27T07:50:01.514Z,25.33
2019-04-27T07:52:32.161Z,22.73
2019-04-27T07:55:00.996Z,21.57
2019-04-27T07:57:33.710Z,31.73
2019-04-27T08:00:05.093Z,27.33
2019-04-27T08:02:33.919Z,27.83
2019-04-27T08:05:02.886Z,25.33
2019-04-27T08:07:31.898Z,26.37
2019-04-27T08:10:01.696Z,24.67
2019-04-27T08:12:30.832Z,25.60
2019-04-27T08:15:00.356Z,21.83
2019-04-27T08:17:30.263Z,20.50
2019-04-27T08:19:59.702Z,21.83
2019-04-27T08:22:29.171Z,17.33
2019-04-27T08:24:59.456Z,18.67
2019-04-27T08:27:30.075Z,11.87
2019-04-27T08:30:02.797Z,16.07
2019-04-27T08:32:33.208Z,19.47
2019-04-27T08:35:02.066Z,13.33
2019-04-27T08:37:31.046Z,20.83
2019-04-27T08:39:59.875Z,19.87
2019-04-27T08:42:29.383Z,19.70
2019-04-27T08:44:59.445Z,23.07
2019-04-27T08:47:29.363Z,19.73
2019-04-27T08:49:59.144Z,20.37
2019-04-27T08:52:30.302Z,21.27
2019-04-27T08:54:59.478Z,20.53
2019-04-27T08:57:28.980Z,31.50
2019-04-27T08:59:59.705Z,28.03
2019-04-27T09:02:39.840Z,16.30
2019-04-27T09:04:59.693Z,12.17
2019-04-27T09:07:33.226Z,17.27
2019-04-27T09:10:06.448Z,16.10
2019-04-27T09:12:53.684Z,13.40
2019-04-27T09:15:24.465Z,21.23
2019-04-27T09:17:54.970Z,32.60
2019-04-27T09:20:28.736Z,24.37
2019-04-27T09:22:59.240Z,24.17
2019-04-27T09:25:29.580Z,20.43
2019-04-27T09:27:59.763Z,20.57
2019-04-27T09:30:29.750Z,15.33
2019-04-27T09:32:59.091Z,20.23
2019-04-27T09:35:28.493Z,14.43
2019-04-27T09:37:57.375Z,22.37
2019-04-27T09:40:26.749Z,21.53
2019-04-27T09:42:57.157Z,22.87
2019-04-27T09:45:27.068Z,18.53
2019-04-27T09:47:56.446Z,23.57
2019-04-27T09:50:28.011Z,25.17
2019-04-27T09:52:56.050Z,24.47
2019-04-27T09:55:26.336Z,22.97
2019-04-27T09:57:56.886Z,20.43
2019-04-27T10:00:27.631Z,25.10
2019-04-27T10:02:56.664Z,21.23
2019-04-27T10:05:26.329Z,19.30
2019-04-27T10:07:56.935Z,17.70
2019-04-27T10:10:28.501Z,19.10
2019-04-27T10:12:57.452Z,15.07
2019-04-27T10:15:26.782Z,19.63
2019-04-27T10:17:57.625Z,16.53
2019-04-27T10:20:26.446Z,19.50
2019-04-27T10:22:56.836Z,16.50
2019-04-27T10:25:27.291Z,14.27
2019-04-27T10:27:59.156Z,13.80
2019-04-27T10:30:28.999Z,9.10
2019-04-27T10:32:57.863Z,11.80
2019-04-27T10:35:27.015Z,13.27
2019-04-27T10:37:56.020Z,16.57
2019-04-27T10:40:26.382Z,18.13
2019-04-27T10:42:56.096Z,33.90
2019-04-27T10:45:25.234Z,15.20
2019-04-27T10:47:56.083Z,14.13
2019-04-27T10:50:26.562Z,14.50
2019-04-27T10:52:56.789Z,17.60
2019-04-27T10:55:26.255Z,14.63
2019-04-27T10:57:55.568Z,10.73
2019-04-27T11:00:31.967Z,15.77
2019-04-27T11:03:00.996Z,12.10
2019-04-27T11:05:38.823Z,12.47
2019-04-27T11:08:08.690Z,12.60
2019-04-27T11:10:37.611Z,14.23
2019-04-27T11:13:09.362Z,12.17
2019-04-27T11:15:38.573Z,12.70
2019-04-27T11:18:07.461Z,13.00
2019-04-27T11:20:36.383Z,13.40
2019-04-27T11:23:09.186Z,14.87
2019-04-27T11:25:36.521Z,16.83
2019-04-27T11:28:05.858Z,15.30
2019-04-27T11:30:34.923Z,11.40
2019-04-27T11:33:03.826Z,11.33
2019-04-27T11:35:35.747Z,13.23
2019-04-27T11:38:05.626Z,11.73
2019-04-27T11:40:36.380Z,9.87
2019-04-27T11:43:05.926Z,17.23
2019-04-27T11:45:36.643Z,9.97
2019-04-27T11:48:05.911Z,13.60
2019-04-27T11:50:35.817Z,13.57
2019-04-27T11:53:06.167Z,13.53
2019-04-27T11:55:35.257Z,8.27
2019-04-27T11:58:04.110Z,12.33
2019-04-27T12:00:33.213Z,10.67
2019-04-27T12:03:02.167Z,13.57
2019-04-27T12:05:31.147Z,13.87
2019-04-27T12:08:00.136Z,12.60
2019-04-27T12:10:29.004Z,11.00
2019-04-27T12:12:57.879Z,12.37
2019-04-27T12:15:26.816Z,13.33
2019-04-27T12:17:56.149Z,9.43
2019-04-27T12:20:25.772Z,7.53
2019-04-27T12:22:55.203Z,7.30
2019-04-27T12:25:24.083Z,11.13
2019-04-27T12:27:57.451Z,9.57
2019-04-27T12:30:30.918Z,9.20
2019-04-27T12:32:59.835Z,8.70
2019-04-27T12:35:28.724Z,10.03
2019-04-27T12:37:57.946Z,11.63
2019-04-27T12:40:26.977Z,8.33
2019-04-27T12:42:55.847Z,6.53
2019-04-27T12:45:26.541Z,4.43
2019-04-27T12:47:56.582Z,11.23
2019-04-27T12:50:26.205Z,5.63
2019-04-27T12:52:56.746Z,5.87
2019-04-27T12:55:33.172Z,7.43
2019-04-27T12:58:21.844Z,8.70
2019-04-27T13:01:07.263Z,10.70
2019-04-27T13:03:36.372Z,11.40
2019-04-27T13:06:05.429Z,6.80
2019-04-27T13:08:35.714Z,11.63
2019-04-27T13:11:05.998Z,8.93
2019-04-27T13:13:36.702Z,4.03
2019-04-27T13:16:06.520Z,10.53
2019-04-27T13:18:36.111Z,5.67
2019-04-27T13:21:05.121Z,6.93
2019-04-27T13:23:33.985Z,6.70
2019-04-27T13:26:03.823Z,6.60
2019-04-27T13:28:32.686Z,7.03
2019-04-27T13:31:01.530Z,6.80
2019-04-27T13:33:30.572Z,9.00
2019-04-27T13:35:59.407Z,13.83
2019-04-27T13:38:28.325Z,9.73
2019-04-27T13:41:07.448Z,23.77
2019-04-27T13:43:38.985Z,26.83
2019-04-27T13:46:09.933Z,19.27
2019-04-27T13:48:57.073Z,17.00
2019-04-27T13:51:39.593Z,13.27
2019-04-27T13:54:17.130Z,16.47
2019-04-27T13:56:39.073Z,14.80
2019-04-27T13:59:07.982Z,18.00
2019-04-27T14:01:37.000Z,9.23
2019-04-27T14:04:07.020Z,14.53
2019-04-27T14:06:36.417Z,7.30
2019-04-27T14:09:09.260Z,9.27
2019-04-27T14:11:39.361Z,10.33
2019-04-27T14:14:08.369Z,6.00
2019-04-27T14:16:39.042Z,5.47
2019-04-27T14:19:08.604Z,5.37
2019-04-27T14:21:38.728Z,6.93
2019-04-27T14:24:07.976Z,5.70
2019-04-27T14:26:38.472Z,5.10
2019-04-27T14:29:08.751Z,10.20
2019-04-27T14:31:39.467Z,10.30
2019-04-27T14:34:09.111Z,13.63
2019-04-27T14:36:40.479Z,7.77
2019-04-27T14:39:10.393Z,7.70
2019-04-27T14:41:40.641Z,10.30
2019-04-27T14:44:10.644Z,10.28
2019-04-27T14:46:39.830Z,10.77
2019-04-27T14:49:08.630Z,8.27
2019-04-27T14:51:39.908Z,9.33
2019-04-27T14:54:09.248Z,12.50
2019-04-27T14:56:38.742Z,9.77
2019-04-27T14:59:08.050Z,8.80
2019-04-27T15:01:38.165Z,11.20
2019-04-27T15:04:07.585Z,11.00
2019-04-27T15:06:36.485Z,8.27
2019-04-27T15:09:07.180Z,7.17
2019-04-27T15:11:36.584Z,7.57
2019-04-27T15:14:05.565Z,8.57
2019-04-27T15:16:37.866Z,6.37
2019-04-27T15:19:06.523Z,6.40
2019-04-27T15:21:38.841Z,5.70
2019-04-27T15:24:10.270Z,7.13
2019-04-27T15:26:36.829Z,6.40
2019-04-27T15:29:07.228Z,6.07
2019-04-27T15:31:38.805Z,6.97
2019-04-27T15:34:23.417Z,2.70
2019-04-27T15:36:58.199Z,5.53
2019-04-27T15:39:45.010Z,7.27
2019-04-27T15:42:32.204Z,5.90
2019-04-27T15:45:01.088Z,3.03
2019-04-27T15:47:29.972Z,4.50
2019-04-27T15:49:59.853Z,3.83
2019-04-27T15:52:30.092Z,4.30
2019-04-27T15:55:02.747Z,2.67
2019-04-27T15:57:29.840Z,3.00
2019-04-27T15:59:59.580Z,4.07
2019-04-27T16:02:28.925Z,5.37
2019-04-27T16:04:58.312Z,4.03
2019-04-27T16:07:30.400Z,5.67
2019-04-27T16:09:59.157Z,3.83
2019-04-27T16:12:29.906Z,5.20
2019-04-27T16:14:58.758Z,3.80
2019-04-27T16:17:29.378Z,6.47
2019-04-27T16:19:58.269Z,7.33
2019-04-27T16:22:27.748Z,5.87
2019-04-27T16:24:58.111Z,6.80
2019-04-27T16:27:33.696Z,7.40
2019-04-27T16:29:57.891Z,11.27
2019-04-27T16:32:28.222Z,6.87
2019-04-27T16:34:59.130Z,13.53
2019-04-27T16:37:29.292Z,15.10
2019-04-27T16:39:58.888Z,6.10
2019-04-27T16:42:28.729Z,5.13
2019-04-27T16:44:58.199Z,8.63
2019-04-27T16:47:28.212Z,8.57
2019-04-27T16:49:58.604Z,8.77
2019-04-27T16:52:29.702Z,9.57
2019-04-27T16:55:00.606Z,13.87
2019-04-27T16:57:32.506Z,38.53
2019-04-27T17:00:01.164Z,14.97
2019-04-27T17:02:30.302Z,8.43
2019-04-27T17:04:59.215Z,15.80
2019-04-27T17:07:30.223Z,26.60
2019-04-27T17:09:59.457Z,33.77
2019-04-27T17:12:29.820Z,48.53
2019-04-27T17:15:05.805Z,46.07
2019-04-27T17:17:35.592Z,43.50
2019-04-27T17:20:05.073Z,40.83
2019-04-27T17:22:33.978Z,84.30
2019-04-27T17:25:02.850Z,75.67
2019-04-27T17:27:38.153Z,74.63
2019-04-27T17:30:08.971Z,59.63
2019-04-27T17:32:39.732Z,74.40
2019-04-27T17:35:11.752Z,61.47
2019-04-27T17:37:40.908Z,33.60
2019-04-27T17:43:28.926Z,41.87
2019-04-27T17:46:13.232Z,22.57
2019-04-27T17:48:48.569Z,20.67
2019-04-27T17:51:21.381Z,20.63
2019-04-27T17:53:50.566Z,17.57
2019-04-27T17:59:32.723Z,28.40
2019-04-27T18:02:08.919Z,35.67
2019-04-27T18:04:40.977Z,26.87
2019-04-27T18:07:16.593Z,31.63
2019-04-27T18:09:58.556Z,23.33
2019-04-27T18:12:35.994Z,31.90
2019-04-27T18:15:10.519Z,34.20
2019-04-27T18:17:48.237Z,39.20
2019-04-27T18:20:28.910Z,32.07
2019-04-27T18:23:03.728Z,23.60
2019-04-27T18:25:40.381Z,28.70
2019-04-27T18:28:15.033Z,28.43
2019-04-27T18:31:01.797Z,38.83
2019-04-27T18:33:37.265Z,60.30
2019-04-27T18:36:13.835Z,48.33
2019-04-27T18:38:39.241Z,49.37
2019-04-27T18:41:15.218Z,42.27
2019-04-27T18:43:52.139Z,29.20
2019-04-27T18:46:24.697Z,46.83
2019-04-27T18:48:58.429Z,70.77
2019-04-27T18:51:32.838Z,50.73
2019-04-27T18:54:03.589Z,26.30
2019-04-27T18:56:33.296Z,23.83
2019-04-27T18:59:03.266Z,35.10
2019-04-27T19:01:36.399Z,25.77
2019-04-27T19:04:08.715Z,27.77
2019-04-27T19:06:39.139Z,29.40
2019-04-27T19:09:08.602Z,40.30
2019-04-27T19:11:38.337Z,45.53
2019-04-27T19:14:08.344Z,41.37
2019-04-27T19:16:38.371Z,42.10
2019-04-27T19:19:08.639Z,43.43
2019-04-27T19:21:39.287Z,55.27
2019-04-27T19:24:08.901Z,41.57
2019-04-27T19:26:56.357Z,55.57
2019-04-27T19:29:26.918Z,61.00
2019-04-27T19:32:02.527Z,60.17
2019-04-27T19:34:31.553Z,55.17
2019-04-27T19:37:02.259Z,49.03
2019-04-27T19:39:33.209Z,52.27
2019-04-27T19:42:03.866Z,49.47
2019-04-27T19:44:32.820Z,74.83
2019-04-27T19:47:01.711Z,72.03
2019-04-27T19:49:31.778Z,75.73
2019-04-27T19:52:00.803Z,90.43
2019-04-27T19:54:30.215Z,74.80
2019-04-27T19:56:59.676Z,55.53
2019-04-27T19:59:30.357Z,41.00
2019-04-27T20:02:00.786Z,44.53
2019-04-27T20:04:31.526Z,49.00
2019-04-27T20:07:00.399Z,66.53
2019-04-27T20:09:47.836Z,64.97
2019-04-27T20:12:17.614Z,52.20
2019-04-27T20:14:55.921Z,72.73
2019-04-27T20:17:30.893Z,74.27
2019-04-27T20:20:01.332Z,94.80
2019-04-27T20:22:30.286Z,168.60
2019-04-27T20:25:01.516Z,160.17
2019-04-27T20:27:32.129Z,140.10
2019-04-27T20:30:00.700Z,131.57
2019-04-27T20:32:31.443Z,135.90
2019-04-27T20:35:01.487Z,101.20
2019-04-27T20:37:31.355Z,71.87
2019-04-27T20:40:01.611Z,66.70
2019-04-27T20:42:31.465Z,59.23
2019-04-27T20:45:01.923Z,52.50
2019-04-27T20:47:31.239Z,50.10
2019-04-27T20:50:00.141Z,45.63
2019-04-27T20:52:33.579Z,47.87
2019-04-27T20:55:02.435Z,49.80
2019-04-27T20:57:31.797Z,44.53
2019-04-27T21:00:02.020Z,48.73
2019-04-27T21:02:48.633Z,47.40
2019-04-27T21:05:35.740Z,47.10
2019-04-27T21:08:12.317Z,45.27
2019-04-27T21:10:41.490Z,47.47
2019-04-27T21:13:11.228Z,51.93
2019-04-27T21:15:41.895Z,49.90
2019-04-27T21:18:11.528Z,61.53
2019-04-27T21:20:41.160Z,57.10
2019-04-27T21:23:12.062Z,56.97
2019-04-27T21:25:42.114Z,55.13
2019-04-27T21:28:16.614Z,58.63
2019-04-27T21:30:42.399Z,86.93
2019-04-27T21:33:11.545Z,77.80
2019-04-27T21:35:40.514Z,68.60
2019-04-27T21:38:09.431Z,79.33
2019-04-27T21:40:38.299Z,87.90
2019-04-27T21:43:07.171Z,86.47
2019-04-27T21:45:36.088Z,78.70
2019-04-27T21:48:04.940Z,75.40
2019-04-27T21:50:33.787Z,79.77
2019-04-27T21:53:06.720Z,89.90
2019-04-27T21:55:37.119Z,88.77
2019-04-27T21:58:06.023Z,92.93
2019-04-27T22:00:43.103Z,69.57
2019-04-27T22:03:17.295Z,51.20
2019-04-27T22:05:46.286Z,39.80
2019-04-27T22:08:15.145Z,47.30
2019-04-27T22:10:43.998Z,39.30
2019-04-27T22:13:12.924Z,37.43
2019-04-27T22:15:41.787Z,32.10
2019-04-27T22:18:11.130Z,36.93
2019-04-27T22:20:42.443Z,32.13
2019-04-27T22:23:18.187Z,33.70
2019-04-27T22:25:47.091Z,31.77
2019-04-27T22:28:15.941Z,28.80
2019-04-27T22:30:44.804Z,23.97
2019-04-27T22:33:13.730Z,20.77
2019-04-27T22:35:42.686Z,29.77
2019-04-27T22:38:11.933Z,51.87
2019-04-27T22:40:51.411Z,64.20
2019-04-27T22:43:24.687Z,69.97
2019-04-27T22:45:54.107Z,76.60
2019-04-27T22:48:22.961Z,81.47
2019-04-27T22:50:53.267Z,81.07
2019-04-27T22:53:22.193Z,84.00
2019-04-27T22:56:08.749Z,90.87
2019-04-27T22:58:40.654Z,79.17
2019-04-27T23:01:13.958Z,93.70
2019-04-27T23:03:44.431Z,90.70
2019-04-27T23:06:13.286Z,83.53
2019-04-27T23:08:42.140Z,74.13
2019-04-27T23:11:11.922Z,78.03
2019-04-27T23:13:40.763Z,73.43
2019-04-27T23:16:11.579Z,60.03
2019-04-27T23:18:41.347Z,58.60
2019-04-27T23:21:11.759Z,61.63
2019-04-27T23:23:41.323Z,67.27
2019-04-27T23:26:11.935Z,58.27
2019-04-27T23:28:41.427Z,58.87
2019-04-27T23:31:17.898Z,62.40
2019-04-27T23:33:48.333Z,56.73
2019-04-27T23:36:17.192Z,64.97
2019-04-27T23:38:46.077Z,60.77
2019-04-27T23:41:14.945Z,58.57
2019-04-27T23:43:43.803Z,59.87
2019-04-27T23:46:12.716Z,61.50
2019-04-27T23:48:42.014Z,62.00
2019-04-27T23:51:12.622Z,67.47
2019-04-27T23:53:41.816Z,80.80
2019-04-27T23:56:10.857Z,66.80
2019-04-27T23:58:39.691Z,78.30
